sensor_id;sensor_type;location;lat;lon;timestamp;temperature;humidity
53520;DHT22;39397;53.204;5.778;2022-07-10T18:09:56;24.90;99.90
53520;DHT22;39397;53.204;5.778;2022-07-10T18:12:21;23.80;99.90
53520;DHT22;39397;53.204;5.778;2022-07-10T18:14:48;23.50;99.90
53520;DHT22;39397;53.204;5.778;2022-07-10T18:17:14;23.30;99.90
53520;DHT22;39397;53.204;5.778;2022-07-10T18:19:39;23.10;99.90
53520;DHT22;39397;53.204;5.778;2022-07-10T18:27:34;22.60;99.90
53520;DHT22;39397;53.204;5.778;2022-07-10T18:30:00;22.00;99.90
53520;DHT22;39397;53.204;5.778;2022-07-10T18:32:26;21.10;99.90
53520;DHT22;39397;53.204;5.778;2022-07-10T18:35:10;20.50;99.90
53520;DHT22;39397;53.204;5.778;2022-07-10T18:37:36;19.90;99.90
53520;DHT22;39397;53.204;5.778;2022-07-10T18:40:02;19.60;99.90
53520;DHT22;39397;53.204;5.778;2022-07-10T18:42:28;19.10;99.90
53520;DHT22;39397;53.204;5.778;2022-07-10T18:44:54;18.80;99.90
53520;DHT22;39397;53.204;5.778;2022-07-10T18:47:20;18.60;99.90
53520;DHT22;39397;53.204;5.778;2022-07-10T18:49:46;18.50;99.90
53520;DHT22;39397;53.204;5.778;2022-07-10T18:52:11;18.40;99.90
53520;DHT22;39397;53.204;5.778;2022-07-10T18:54:37;18.20;99.90
53520;DHT22;39397;53.204;5.778;2022-07-10T18:57:03;18.00;99.90
53520;DHT22;39397;53.204;5.778;2022-07-10T18:59:31;17.90;99.90
53520;DHT22;39397;53.204;5.778;2022-07-10T19:01:57;17.70;99.90
53520;DHT22;39397;53.204;5.778;2022-07-10T19:04:22;17.70;99.90
53520;DHT22;39397;53.204;5.778;2022-07-10T19:06:48;17.70;99.90
53520;DHT22;39397;53.204;5.778;2022-07-10T19:09:17;17.60;99.90
53520;DHT22;39397;53.204;5.778;2022-07-10T19:11:42;17.60;99.90
53520;DHT22;39397;53.204;5.778;2022-07-10T19:14:08;17.50;99.90
53520;DHT22;39397;53.204;5.778;2022-07-10T19:16:34;17.40;99.90
53520;DHT22;39397;53.204;5.778;2022-07-10T19:19:00;17.40;99.90
53520;DHT22;39397;53.204;5.778;2022-07-10T19:21:26;17.40;99.90
53520;DHT22;39397;53.204;5.778;2022-07-10T19:23:52;17.40;99.90
53520;DHT22;39397;53.204;5.778;2022-07-10T19:26:17;17.40;99.90
53520;DHT22;39397;53.204;5.778;2022-07-10T19:28:43;17.40;99.90
53520;DHT22;39397;53.204;5.778;2022-07-10T19:31:10;17.40;99.90
53520;DHT22;39397;53.204;5.778;2022-07-10T19:33:37;17.50;99.90
53520;DHT22;39397;53.204;5.778;2022-07-10T19:36:03;17.30;99.90
53520;DHT22;39397;53.204;5.778;2022-07-10T19:38:29;17.40;99.90
53520;DHT22;39397;53.204;5.778;2022-07-10T19:40:54;17.30;99.90
53520;DHT22;39397;53.204;5.778;2022-07-10T19:43:21;17.20;99.90
53520;DHT22;39397;53.204;5.778;2022-07-10T19:45:46;17.20;99.90
53520;DHT22;39397;53.204;5.778;2022-07-10T19:48:12;17.20;99.90
53520;DHT22;39397;53.204;5.778;2022-07-10T19:50:38;18.50;99.90
53520;DHT22;39397;53.204;5.778;2022-07-10T19:53:04;17.20;99.90
53520;DHT22;39397;53.204;5.778;2022-07-10T19:55:32;17.20;99.90
53520;DHT22;39397;53.204;5.778;2022-07-10T19:57:58;17.20;99.90
53520;DHT22;39397;53.204;5.778;2022-07-10T20:00:24;17.30;99.90
53520;DHT22;39397;53.204;5.778;2022-07-10T20:02:50;17.20;99.90
53520;DHT22;39397;53.204;5.778;2022-07-10T20:05:17;17.10;99.90
53520;DHT22;39397;53.204;5.778;2022-07-10T20:07:43;17.00;99.90
53520;DHT22;39397;53.204;5.778;2022-07-10T20:10:09;17.10;99.90
53520;DHT22;39397;53.204;5.778;2022-07-10T20:12:35;16.80;99.90
53520;DHT22;39397;53.204;5.778;2022-07-10T20:15:01;17.00;99.90
53520;DHT22;39397;53.204;5.778;2022-07-10T20:17:27;16.90;99.90
53520;DHT22;39397;53.204;5.778;2022-07-10T20:19:53;16.90;99.90
53520;DHT22;39397;53.204;5.778;2022-07-10T20:22:19;16.90;99.90
53520;DHT22;39397;53.204;5.778;2022-07-10T20:24:45;17.00;99.90
53520;DHT22;39397;53.204;5.778;2022-07-10T20:27:12;17.10;99.90
53520;DHT22;39397;53.204;5.778;2022-07-10T20:29:37;17.00;99.90
53520;DHT22;39397;53.204;5.778;2022-07-10T20:32:04;16.80;99.90
53520;DHT22;39397;53.204;5.778;2022-07-10T20:34:30;16.80;99.90
53520;DHT22;39397;53.204;5.778;2022-07-10T20:36:55;16.80;99.90
53520;DHT22;39397;53.204;5.778;2022-07-10T20:39:40;16.80;99.90
53520;DHT22;39397;53.204;5.778;2022-07-10T20:42:05;16.70;99.90
53520;DHT22;39397;53.204;5.778;2022-07-10T20:44:32;16.70;99.90
53520;DHT22;39397;53.204;5.778;2022-07-10T20:46:57;16.80;99.90
53520;DHT22;39397;53.204;5.778;2022-07-10T20:49:23;16.70;99.90
53520;DHT22;39397;53.204;5.778;2022-07-10T20:51:49;16.80;99.90
53520;DHT22;39397;53.204;5.778;2022-07-10T20:54:15;16.80;99.90
53520;DHT22;39397;53.204;5.778;2022-07-10T20:56:40;16.70;99.90
53520;DHT22;39397;53.204;5.778;2022-07-10T20:59:07;16.70;99.90
53520;DHT22;39397;53.204;5.778;2022-07-10T21:01:33;16.60;99.90
53520;DHT22;39397;53.204;5.778;2022-07-10T21:03:58;16.60;99.90
53520;DHT22;39397;53.204;5.778;2022-07-10T21:06:24;16.60;99.90
53520;DHT22;39397;53.204;5.778;2022-07-10T21:08:50;16.60;99.90
53520;DHT22;39397;53.204;5.778;2022-07-10T21:11:15;16.70;99.90
53520;DHT22;39397;53.204;5.778;2022-07-10T21:13:41;16.60;99.90
53520;DHT22;39397;53.204;5.778;2022-07-10T21:16:07;16.70;99.90
53520;DHT22;39397;53.204;5.778;2022-07-10T21:18:33;16.60;99.90
53520;DHT22;39397;53.204;5.778;2022-07-10T21:20:58;16.60;99.90
53520;DHT22;39397;53.204;5.778;2022-07-10T21:23:24;16.60;99.90
53520;DHT22;39397;53.204;5.778;2022-07-10T21:25:50;16.60;99.90
53520;DHT22;39397;53.204;5.778;2022-07-10T21:28:16;16.50;99.90
53520;DHT22;39397;53.204;5.778;2022-07-10T21:30:41;16.60;99.90
53520;DHT22;39397;53.204;5.778;2022-07-10T21:33:07;16.50;99.90
53520;DHT22;39397;53.204;5.778;2022-07-10T21:35:33;16.60;99.90
53520;DHT22;39397;53.204;5.778;2022-07-10T21:37:59;16.60;99.90
53520;DHT22;39397;53.204;5.778;2022-07-10T21:40:25;16.50;99.90
53520;DHT22;39397;53.204;5.778;2022-07-10T21:42:53;16.50;99.90
53520;DHT22;39397;53.204;5.778;2022-07-10T21:45:18;16.60;99.90
53520;DHT22;39397;53.204;5.778;2022-07-10T21:47:44;16.50;99.90
53520;DHT22;39397;53.204;5.778;2022-07-10T21:50:10;16.50;99.90
53520;DHT22;39397;53.204;5.778;2022-07-10T21:52:36;16.40;99.90
53520;DHT22;39397;53.204;5.778;2022-07-10T21:55:02;16.40;99.90
53520;DHT22;39397;53.204;5.778;2022-07-10T21:57:27;16.50;99.90
53520;DHT22;39397;53.204;5.778;2022-07-10T21:59:53;16.50;99.90
53520;DHT22;39397;53.204;5.778;2022-07-10T22:02:19;16.50;99.90
53520;DHT22;39397;53.204;5.778;2022-07-10T22:04:45;16.40;99.90
53520;DHT22;39397;53.204;5.778;2022-07-10T22:07:11;16.40;99.90
53520;DHT22;39397;53.204;5.778;2022-07-10T22:09:36;16.50;99.90
53520;DHT22;39397;53.204;5.778;2022-07-10T22:12:02;16.50;99.90
53520;DHT22;39397;53.204;5.778;2022-07-10T22:14:28;16.50;99.90
53520;DHT22;39397;53.204;5.778;2022-07-10T22:16:54;16.50;99.90
53520;DHT22;39397;53.204;5.778;2022-07-10T22:19:19;16.40;99.90
53520;DHT22;39397;53.204;5.778;2022-07-10T22:21:45;16.40;99.90
53520;DHT22;39397;53.204;5.778;2022-07-10T22:24:11;16.40;99.90
53520;DHT22;39397;53.204;5.778;2022-07-10T22:26:37;16.30;99.90
53520;DHT22;39397;53.204;5.778;2022-07-10T22:29:03;16.40;99.90
53520;DHT22;39397;53.204;5.778;2022-07-10T22:31:29;16.30;99.90
53520;DHT22;39397;53.204;5.778;2022-07-10T22:33:56;16.40;99.90
53520;DHT22;39397;53.204;5.778;2022-07-10T22:36:24;16.30;99.90
53520;DHT22;39397;53.204;5.778;2022-07-10T22:38:50;16.40;99.90
53520;DHT22;39397;53.204;5.778;2022-07-10T22:41:16;16.30;99.90
53520;DHT22;39397;53.204;5.778;2022-07-10T22:43:42;16.30;99.90
53520;DHT22;39397;53.204;5.778;2022-07-10T22:46:08;16.40;99.90
53520;DHT22;39397;53.204;5.778;2022-07-10T22:48:35;16.30;99.90
53520;DHT22;39397;53.204;5.778;2022-07-10T22:51:01;16.30;99.90
53520;DHT22;39397;53.204;5.778;2022-07-10T22:53:27;16.30;99.90
53520;DHT22;39397;53.204;5.778;2022-07-10T22:55:54;16.30;99.90
53520;DHT22;39397;53.204;5.778;2022-07-10T22:58:19;16.40;99.90
53520;DHT22;39397;53.204;5.778;2022-07-10T23:00:47;16.30;99.90
53520;DHT22;39397;53.204;5.778;2022-07-10T23:03:14;16.40;99.90
53520;DHT22;39397;53.204;5.778;2022-07-10T23:05:40;16.30;99.90
53520;DHT22;39397;53.204;5.778;2022-07-10T23:08:06;16.30;99.90
53520;DHT22;39397;53.204;5.778;2022-07-10T23:10:32;16.30;99.90
53520;DHT22;39397;53.204;5.778;2022-07-10T23:12:58;16.40;99.90
53520;DHT22;39397;53.204;5.778;2022-07-10T23:15:24;16.30;99.90
53520;DHT22;39397;53.204;5.778;2022-07-10T23:17:50;16.30;99.90
53520;DHT22;39397;53.204;5.778;2022-07-10T23:20:16;16.30;99.90
53520;DHT22;39397;53.204;5.778;2022-07-10T23:22:42;16.20;99.90
53520;DHT22;39397;53.204;5.778;2022-07-10T23:25:08;16.20;99.90
53520;DHT22;39397;53.204;5.778;2022-07-10T23:27:35;16.20;99.90
53520;DHT22;39397;53.204;5.778;2022-07-10T23:30:01;16.10;99.90
53520;DHT22;39397;53.204;5.778;2022-07-10T23:32:26;16.10;99.90
53520;DHT22;39397;53.204;5.778;2022-07-10T23:34:53;16.00;99.90
53520;DHT22;39397;53.204;5.778;2022-07-10T23:37:20;16.00;99.90
53520;DHT22;39397;53.204;5.778;2022-07-10T23:39:46;16.00;99.90
53520;DHT22;39397;53.204;5.778;2022-07-10T23:42:12;15.90;99.90
53520;DHT22;39397;53.204;5.778;2022-07-10T23:44:38;15.90;99.90
53520;DHT22;39397;53.204;5.778;2022-07-10T23:47:05;16.20;99.90
53520;DHT22;39397;53.204;5.778;2022-07-10T23:49:31;15.80;99.90
53520;DHT22;39397;53.204;5.778;2022-07-10T23:52:16;15.80;99.90
53520;DHT22;39397;53.204;5.778;2022-07-10T23:54:41;15.70;99.90
53520;DHT22;39397;53.204;5.778;2022-07-10T23:57:12;15.80;99.90
53520;DHT22;39397;53.204;5.778;2022-07-10T23:59:38;15.70;99.90
